Quemu Quemu, Argentina
Current Conditions -  °F | °C
As of 6:00 PM on Monday 20 Oct 2014 (Local Time) from SAOC Reporting Station
Clear Clear  
Wind Chill: 27°   Ceiling: Unl
Heat Index: 27°   Visibility: 6mi
Dew Point:   Wind: 21mph
Humidity: 24%   Direction: 360°N
Pressure: 29.94"   Gusts: 35mph
Location:  36.05°S, 63.55°W
Report Text: SAOC 202100Z 36018G30KT CAVOK 27/05 Q1014
Loading
Personal Weather Stations






























Interactive Weather Map
Tropical Storm Tracking
New forecast layout! Learn more

10-Day Weather Forecast

Advertisements
Track Severe Weather on mobile